createdAt,value
2023-02-15T00:00:27.106Z,69.81
2023-02-15T00:02:56.613Z,68.85
2023-02-15T00:05:25.022Z,69.89
2023-02-15T00:07:53.375Z,69.53
2023-02-15T00:10:21.798Z,70.13
2023-02-15T00:12:50.161Z,69.50
2023-02-15T00:15:18.810Z,70.05
2023-02-15T00:17:48.600Z,70.22
2023-02-15T00:20:17.113Z,69.75
2023-02-15T00:22:45.472Z,70.28
2023-02-15T00:25:13.874Z,69.87
2023-02-15T00:27:42.302Z,70.25
2023-02-15T00:30:11.524Z,70.16
2023-02-15T00:32:39.986Z,70.20
2023-02-15T00:35:10.435Z,69.88
2023-02-15T00:37:38.760Z,70.06
2023-02-15T00:40:08.646Z,69.82
2023-02-15T00:42:37.050Z,70.62
2023-02-15T00:45:06.024Z,70.08
2023-02-15T00:47:34.609Z,69.66
2023-02-15T00:50:04.346Z,70.09
2023-02-15T00:52:34.209Z,70.37
2023-02-15T00:55:05.240Z,70.36
2023-02-15T00:57:33.679Z,71.05
2023-02-15T01:00:02.034Z,71.10
2023-02-15T01:02:30.609Z,70.71
2023-02-15T01:04:58.983Z,71.00
2023-02-15T01:07:27.420Z,70.33
2023-02-15T01:09:57.305Z,70.54
2023-02-15T01:12:25.672Z,71.15
2023-02-15T01:14:53.981Z,71.48
2023-02-15T01:17:22.352Z,71.12
2023-02-15T01:19:52.408Z,70.79
2023-02-15T01:22:21.364Z,70.62
2023-02-15T01:24:51.674Z,70.83
2023-02-15T01:27:21.516Z,70.81
2023-02-15T01:29:50.086Z,71.49
2023-02-15T01:32:18.509Z,70.92
2023-02-15T01:34:46.880Z,71.29
2023-02-15T01:37:15.384Z,70.58
2023-02-15T01:39:44.109Z,71.21
2023-02-15T01:42:13.513Z,71.43
2023-02-15T01:44:55.181Z,71.61
2023-02-15T01:47:29.303Z,71.51
2023-02-15T01:50:04.431Z,71.76
2023-02-15T01:52:33.253Z,72.02
2023-02-15T01:55:01.724Z,71.09
2023-02-15T01:57:31.966Z,71.88
2023-02-15T02:00:08.791Z,71.17
2023-02-15T02:02:46.120Z,71.14
2023-02-15T02:05:16.991Z,70.60
2023-02-15T02:07:48.961Z,71.35
2023-02-15T02:10:20.096Z,71.58
2023-02-15T02:12:51.624Z,71.50
2023-02-15T02:15:29.577Z,71.69
2023-02-15T02:18:12.308Z,71.29
2023-02-15T02:21:15.860Z,70.90
2023-02-15T02:23:58.790Z,71.28
2023-02-15T02:26:58.267Z,71.19
2023-02-15T02:29:58.950Z,71.67
2023-02-15T02:32:52.599Z,71.95
2023-02-15T02:35:29.150Z,71.54
2023-02-15T02:38:05.966Z,71.58
2023-02-15T02:40:46.746Z,71.45
2023-02-15T02:43:23.133Z,71.88
2023-02-15T02:45:58.595Z,72.21
2023-02-15T02:48:31.840Z,72.06
2023-02-15T02:51:00.278Z,71.74
2023-02-15T02:53:30.134Z,72.01
2023-02-15T02:56:01.883Z,71.86
2023-02-15T02:58:37.897Z,71.94
2023-02-15T03:01:11.672Z,71.95
2023-02-15T03:03:45.332Z,72.00
2023-02-15T03:06:19.172Z,71.81
2023-02-15T03:08:50.879Z,72.00
2023-02-15T03:11:19.474Z,72.20
2023-02-15T03:13:50.809Z,71.89
2023-02-15T03:16:28.414Z,72.44
2023-02-15T03:19:02.697Z,72.47
2023-02-15T03:21:36.950Z,73.15
2023-02-15T03:24:16.086Z,72.61
2023-02-15T03:26:47.876Z,72.38
2023-02-15T03:29:18.569Z,72.33
2023-02-15T03:31:51.386Z,73.06
2023-02-15T03:34:21.502Z,72.39
2023-02-15T03:36:55.607Z,72.32
2023-02-15T03:39:32.457Z,73.13
2023-02-15T03:42:09.410Z,72.81
2023-02-15T03:44:49.449Z,73.42
2023-02-15T03:47:21.657Z,73.00
2023-02-15T03:49:57.151Z,73.31
2023-02-15T03:52:26.482Z,73.58
2023-02-15T03:54:55.841Z,73.62
2023-02-15T03:57:44.645Z,73.52
2023-02-15T04:00:34.024Z,72.80
2023-02-15T04:03:25.491Z,73.48
2023-02-15T04:05:55.387Z,73.45
2023-02-15T04:08:44.370Z,72.96
2023-02-15T04:11:11.814Z,73.46
2023-02-15T04:13:40.263Z,72.88
2023-02-15T04:16:08.990Z,73.06
2023-02-15T04:18:59.242Z,73.69
2023-02-15T04:21:48.655Z,73.35
2023-02-15T04:24:35.124Z,73.26
2023-02-15T04:27:04.646Z,73.40
2023-02-15T04:29:33.885Z,73.67
2023-02-15T04:32:03.845Z,73.39
2023-02-15T04:34:32.672Z,73.46
2023-02-15T04:37:02.451Z,72.99
2023-02-15T04:39:31.084Z,73.26
2023-02-15T04:41:59.555Z,72.92
2023-02-15T04:44:28.041Z,73.50
2023-02-15T04:46:56.998Z,73.71
2023-02-15T04:49:25.410Z,73.13
2023-02-15T04:51:53.872Z,73.28
2023-02-15T04:54:23.703Z,73.71
2023-02-15T04:56:52.046Z,73.19
2023-02-15T04:59:20.472Z,73.75
2023-02-15T05:01:49.054Z,73.81
2023-02-15T05:04:17.456Z,73.77
2023-02-15T05:06:45.983Z,72.96
2023-02-15T05:09:14.860Z,72.69
2023-02-15T05:11:44.825Z,72.93
2023-02-15T05:14:13.303Z,72.91
2023-02-15T05:16:41.931Z,72.99
2023-02-15T05:19:10.360Z,73.17
2023-02-15T05:21:38.715Z,72.75
2023-02-15T05:24:28.696Z,72.89
2023-02-15T05:27:15.824Z,72.79
2023-02-15T05:29:44.251Z,72.88
2023-02-15T05:32:15.479Z,72.75
2023-02-15T05:34:44.023Z,73.38
2023-02-15T05:37:12.403Z,73.17
2023-02-15T05:39:40.855Z,73.87
2023-02-15T05:42:10.776Z,73.51
2023-02-15T05:44:39.210Z,73.45
2023-02-15T05:47:08.515Z,73.44
2023-02-15T05:49:37.185Z,73.22
2023-02-15T05:52:05.847Z,73.32
2023-02-15T05:54:34.540Z,73.28
2023-02-15T05:57:02.877Z,72.90
2023-02-15T05:59:33.260Z,73.25
2023-02-15T06:02:01.809Z,73.29
2023-02-15T06:04:30.584Z,72.87
2023-02-15T06:06:59.394Z,73.15
2023-02-15T06:09:27.728Z,72.99
2023-02-15T06:11:57.182Z,73.45
2023-02-15T06:14:25.552Z,72.64
2023-02-15T06:16:55.478Z,72.72
2023-02-15T06:19:24.017Z,72.99
2023-02-15T06:21:52.478Z,72.76
2023-02-15T06:24:20.960Z,73.08
2023-02-15T06:26:49.382Z,73.14
2023-02-15T06:29:17.964Z,73.20
2023-02-15T06:31:46.429Z,73.23
2023-02-15T06:34:16.357Z,72.71
2023-02-15T06:36:44.735Z,72.99
2023-02-15T06:39:13.127Z,72.67
2023-02-15T06:41:41.596Z,72.78
2023-02-15T06:44:10.246Z,72.40
2023-02-15T06:46:38.763Z,72.22
2023-02-15T06:49:07.255Z,72.56
2023-02-15T06:51:37.083Z,72.31
2023-02-15T06:54:05.459Z,72.32
2023-02-15T06:56:34.415Z,72.04
2023-02-15T06:59:02.827Z,71.99
2023-02-15T07:01:31.337Z,71.85
2023-02-15T07:03:59.673Z,72.28
2023-02-15T07:06:28.131Z,72.11
2023-02-15T07:08:57.943Z,71.92
2023-02-15T07:11:58.324Z,72.29
2023-02-15T07:14:28.729Z,72.19
2023-02-15T07:16:57.538Z,72.26
2023-02-15T07:19:25.932Z,72.41
2023-02-15T07:21:54.325Z,72.25
2023-02-15T07:24:24.408Z,72.13
2023-02-15T07:26:52.796Z,72.37
2023-02-15T07:29:21.206Z,72.38
2023-02-15T07:31:49.609Z,72.54
2023-02-15T07:34:17.994Z,71.95
2023-02-15T07:36:48.302Z,72.35
2023-02-15T07:39:16.719Z,72.09
2023-02-15T07:41:46.544Z,72.54
2023-02-15T07:44:16.194Z,72.71
2023-02-15T07:46:45.642Z,72.37
2023-02-15T07:49:14.144Z,72.56
2023-02-15T07:51:42.705Z,72.01
2023-02-15T07:54:11.122Z,72.21
2023-02-15T07:56:39.610Z,72.46
2023-02-15T07:59:10.269Z,72.28
2023-02-15T08:01:40.259Z,71.94
2023-02-15T08:04:10.634Z,72.08
2023-02-15T08:06:45.252Z,72.57
2023-02-15T08:09:18.034Z,72.42
2023-02-15T08:11:46.650Z,72.02
2023-02-15T08:14:20.408Z,71.52
2023-02-15T08:16:52.511Z,71.73
2023-02-15T08:19:23.734Z,71.58
2023-02-15T08:21:58.546Z,72.04
2023-02-15T08:24:31.248Z,71.33
2023-02-15T08:27:00.134Z,71.81
2023-02-15T08:29:31.549Z,71.48
2023-02-15T08:32:03.393Z,70.55
2023-02-15T08:34:33.881Z,70.78
2023-02-15T08:37:02.870Z,70.36
2023-02-15T08:39:31.576Z,70.75
2023-02-15T08:42:00.143Z,70.70
2023-02-15T08:44:30.438Z,70.57
2023-02-15T08:47:03.925Z,70.77
2023-02-15T08:49:32.668Z,70.24
2023-02-15T08:52:02.068Z,69.73
2023-02-15T08:54:31.022Z,70.25
2023-02-15T08:56:59.985Z,70.03
2023-02-15T08:59:29.953Z,68.74
2023-02-15T09:01:58.513Z,69.03
2023-02-15T09:04:27.979Z,68.77
2023-02-15T09:06:56.658Z,68.17
2023-02-15T09:09:25.137Z,67.18
2023-02-15T09:11:58.751Z,67.46
2023-02-15T09:14:29.793Z,67.16
2023-02-15T09:16:58.252Z,67.26
2023-02-15T09:19:27.086Z,67.50
2023-02-15T09:21:55.662Z,65.94
2023-02-15T09:24:24.121Z,65.86
2023-02-15T09:26:52.557Z,65.49
2023-02-15T09:29:21.871Z,66.18
2023-02-15T09:31:52.689Z,65.57
2023-02-15T09:34:23.028Z,66.33
2023-02-15T09:36:53.275Z,65.80
2023-02-15T09:39:24.836Z,65.37
2023-02-15T09:42:11.890Z,65.95
2023-02-15T09:44:54.812Z,64.82
2023-02-15T09:47:50.729Z,65.70
2023-02-15T09:50:25.923Z,65.90
2023-02-15T09:53:09.620Z,65.52
2023-02-15T09:55:53.549Z,64.72
2023-02-15T09:58:32.097Z,64.42
2023-02-15T10:01:06.720Z,65.28
2023-02-15T10:03:46.329Z,64.34
2023-02-15T10:06:43.222Z,64.92
2023-02-15T10:09:30.892Z,63.89
2023-02-15T10:12:16.051Z,63.49
2023-02-15T10:15:10.312Z,63.34
2023-02-15T10:17:54.715Z,63.58
2023-02-15T10:20:32.811Z,63.17
2023-02-15T10:23:16.965Z,63.43
2023-02-15T10:25:50.878Z,63.85
2023-02-15T10:28:21.752Z,63.53
2023-02-15T10:30:52.249Z,63.24
2023-02-15T10:33:37.153Z,62.47
2023-02-15T10:36:19.369Z,62.45
2023-02-15T10:38:56.679Z,62.34
2023-02-15T10:41:35.462Z,62.42
2023-02-15T10:44:20.385Z,61.99
2023-02-15T10:47:14.301Z,61.64
2023-02-15T10:49:56.187Z,61.56
2023-02-15T10:52:41.989Z,61.76
2023-02-15T10:55:18.075Z,61.70
2023-02-15T10:57:56.342Z,61.68
2023-02-15T11:00:32.400Z,61.54
2023-02-15T11:03:14.832Z,61.01
2023-02-15T11:05:51.396Z,60.38
2023-02-15T11:08:21.726Z,60.69
2023-02-15T11:10:53.809Z,60.38
2023-02-15T11:13:26.994Z,59.76
2023-02-15T11:15:59.536Z,59.52
2023-02-15T11:18:33.558Z,59.56
2023-02-15T11:21:06.331Z,59.53
2023-02-15T11:23:38.474Z,59.62
2023-02-15T11:26:16.058Z,60.14
2023-02-15T11:28:50.775Z,59.27
2023-02-15T11:31:21.609Z,59.15
2023-02-15T11:33:56.438Z,58.53
2023-02-15T11:36:28.691Z,58.72
2023-02-15T11:39:03.145Z,58.31
2023-02-15T11:41:36.884Z,57.73
2023-02-15T11:44:10.808Z,58.04
2023-02-15T11:46:39.628Z,57.33
2023-02-15T11:49:23.237Z,57.34
2023-02-15T11:51:52.895Z,57.59
2023-02-15T11:54:28.879Z,57.26
2023-02-15T11:57:01.849Z,56.49
2023-02-15T11:59:37.766Z,56.50
2023-02-15T12:02:18.432Z,56.42
2023-02-15T12:04:51.841Z,56.42
2023-02-15T12:07:26.784Z,56.33
2023-02-15T12:10:05.361Z,55.86
2023-02-15T12:12:35.914Z,55.93
2023-02-15T12:15:06.780Z,55.70
2023-02-15T12:17:38.046Z,54.99
2023-02-15T12:20:22.839Z,55.55
2023-02-15T12:22:54.323Z,55.77
2023-02-15T12:25:28.358Z,54.79
2023-02-15T12:27:57.376Z,54.75
2023-02-15T12:30:32.556Z,54.41
2023-02-15T12:33:08.295Z,54.16
2023-02-15T12:35:38.985Z,54.62
2023-02-15T12:38:24.029Z,54.84
2023-02-15T12:41:02.135Z,54.78
2023-02-15T12:43:34.584Z,55.08
2023-02-15T12:46:23.797Z,54.92
2023-02-15T12:49:08.988Z,54.82
2023-02-15T12:51:51.918Z,54.50
2023-02-15T12:54:41.216Z,54.36
2023-02-15T12:57:24.382Z,54.27
2023-02-15T12:59:55.252Z,54.60
2023-02-15T13:02:29.612Z,53.92
2023-02-15T13:05:00.010Z,53.83
2023-02-15T13:07:33.700Z,53.91
2023-02-15T13:10:02.185Z,53.82
2023-02-15T13:12:34.692Z,53.88
2023-02-15T13:15:05.752Z,52.87
2023-02-15T13:17:35.795Z,52.61
2023-02-15T13:20:10.908Z,52.60
2023-02-15T13:22:44.125Z,53.07
2023-02-15T13:25:17.473Z,52.56
2023-02-15T13:27:50.676Z,52.93
2023-02-15T13:30:33.229Z,52.66
2023-02-15T13:33:06.306Z,53.33
2023-02-15T13:35:45.676Z,53.02
2023-02-15T13:38:30.160Z,53.11
2023-02-15T13:41:05.715Z,53.25
2023-02-15T13:43:49.050Z,52.98
2023-02-15T13:46:27.758Z,54.09
2023-02-15T13:49:10.455Z,53.57
2023-02-15T13:51:45.603Z,53.17
2023-02-15T13:54:35.908Z,53.83
2023-02-15T13:57:22.090Z,53.62
2023-02-15T14:00:05.173Z,53.95
2023-02-15T14:03:34.841Z,53.80
2023-02-15T14:06:28.930Z,53.62
2023-02-15T14:09:11.813Z,54.44
2023-02-15T14:11:49.713Z,54.36
2023-02-15T14:14:34.319Z,53.34
2023-02-15T14:17:13.690Z,53.62
2023-02-15T14:19:50.995Z,52.96
2023-02-15T14:22:31.033Z,53.21
2023-02-15T14:25:15.884Z,52.78
2023-02-15T14:27:55.205Z,52.78
2023-02-15T14:30:29.311Z,53.43
2023-02-15T14:33:04.436Z,53.30
2023-02-15T14:35:33.379Z,53.04
2023-02-15T14:38:09.047Z,52.87
2023-02-15T14:41:06.188Z,52.36
2023-02-15T14:43:57.500Z,53.12
2023-02-15T14:46:33.846Z,52.54
2023-02-15T14:49:13.343Z,52.39
2023-02-15T14:52:03.109Z,52.14
2023-02-15T14:55:00.310Z,52.14
2023-02-15T14:57:34.979Z,52.17
2023-02-15T15:00:40.328Z,52.48
2023-02-15T15:03:25.546Z,52.63
2023-02-15T15:06:01.002Z,52.65
2023-02-15T15:08:36.655Z,52.11
2023-02-15T15:11:44.209Z,52.76
2023-02-15T15:14:28.623Z,53.10
2023-02-15T15:16:57.105Z,52.76
2023-02-15T15:20:09.193Z,53.07
2023-02-15T15:22:39.032Z,53.49
2023-02-15T15:25:13.160Z,53.48
2023-02-15T15:27:56.718Z,53.47
2023-02-15T15:31:01.911Z,53.24
2023-02-15T15:34:16.286Z,53.56
2023-02-15T15:37:18.659Z,53.45
2023-02-15T15:40:26.072Z,53.42
2023-02-15T15:43:20.618Z,53.02
2023-02-15T15:46:07.825Z,53.30
2023-02-15T15:48:39.160Z,53.72
2023-02-15T15:51:13.509Z,53.97
2023-02-15T15:53:45.349Z,54.27
2023-02-15T15:56:21.026Z,54.16
2023-02-15T15:58:53.957Z,53.83
2023-02-15T16:01:29.024Z,54.25
2023-02-15T16:04:00.018Z,54.34
2023-02-15T16:06:34.925Z,54.49
2023-02-15T16:09:20.090Z,53.91
2023-02-15T16:11:52.630Z,54.25
2023-02-15T16:14:28.998Z,54.42
2023-02-15T16:16:59.684Z,54.75
2023-02-15T16:19:33.226Z,54.46
2023-02-15T16:22:04.731Z,54.67
2023-02-15T16:25:11.077Z,54.78
2023-02-15T16:27:43.087Z,55.17
2023-02-15T16:30:30.031Z,55.21
2023-02-15T16:33:06.766Z,55.32
2023-02-15T16:35:36.122Z,55.63
2023-02-15T16:38:04.857Z,55.74
2023-02-15T16:40:54.825Z,56.04
2023-02-15T16:43:28.628Z,56.27
2023-02-15T16:46:06.331Z,56.40
2023-02-15T16:48:41.248Z,56.46
2023-02-15T16:51:11.155Z,56.45
2023-02-15T16:53:39.669Z,56.79
2023-02-15T16:56:08.338Z,57.17
2023-02-15T16:58:44.116Z,57.42
2023-02-15T17:01:15.261Z,57.52
2023-02-15T17:03:44.635Z,57.90
2023-02-15T17:06:23.484Z,57.96
2023-02-15T17:08:51.972Z,58.35
2023-02-15T17:11:22.124Z,58.58
2023-02-15T17:14:15.543Z,58.23
2023-02-15T17:16:50.262Z,58.66
2023-02-15T17:19:23.802Z,59.33
2023-02-15T17:21:55.160Z,59.70
2023-02-15T17:24:35.238Z,59.94
2023-02-15T17:27:07.465Z,59.78
2023-02-15T17:29:40.521Z,59.42
2023-02-15T17:32:18.438Z,60.01
2023-02-15T17:35:09.337Z,59.92
2023-02-15T17:37:49.464Z,60.13
2023-02-15T17:40:23.439Z,60.54
2023-02-15T17:42:51.897Z,60.53
2023-02-15T17:45:22.489Z,60.97
2023-02-15T17:47:51.679Z,60.91
2023-02-15T17:50:23.432Z,60.62
2023-02-15T17:52:52.671Z,61.20
2023-02-15T17:55:39.242Z,60.76
2023-02-15T17:58:10.664Z,62.02
2023-02-15T18:01:00.600Z,61.61
2023-02-15T18:03:58.197Z,62.74
2023-02-15T18:06:43.783Z,62.33
2023-02-15T18:09:31.972Z,62.65
2023-02-15T18:12:00.423Z,63.04
2023-02-15T18:14:28.828Z,62.76
2023-02-15T18:16:58.676Z,63.67
2023-02-15T18:19:28.330Z,63.95
2023-02-15T18:21:58.033Z,63.81
2023-02-15T18:24:27.997Z,63.83
2023-02-15T18:26:56.849Z,63.68
2023-02-15T18:29:25.184Z,64.42
2023-02-15T18:31:57.050Z,64.59
2023-02-15T18:34:31.392Z,64.63
2023-02-15T18:37:03.594Z,64.70
2023-02-15T18:39:38.814Z,64.79
2023-02-15T18:42:08.368Z,64.90
2023-02-15T18:44:36.659Z,65.29
2023-02-15T18:47:07.281Z,65.25
2023-02-15T18:49:37.131Z,65.55
2023-02-15T18:52:05.653Z,65.58
2023-02-15T18:54:34.588Z,64.99
2023-02-15T18:57:03.998Z,64.67
2023-02-15T18:59:33.839Z,65.11
2023-02-15T19:02:02.363Z,65.46
2023-02-15T19:04:32.579Z,65.02
2023-02-15T19:07:02.417Z,64.71
2023-02-15T19:09:31.113Z,65.31
2023-02-15T19:12:00.676Z,65.76
2023-02-15T19:14:32.045Z,65.94
2023-02-15T19:17:01.786Z,65.72
2023-02-15T19:19:30.235Z,65.85
2023-02-15T19:21:58.748Z,65.75
2023-02-15T19:24:38.260Z,65.97
2023-02-15T19:27:08.288Z,65.62
2023-02-15T19:29:36.625Z,65.49
2023-02-15T19:32:05.114Z,65.21
2023-02-15T19:34:34.045Z,65.22
2023-02-15T19:37:02.536Z,65.53
2023-02-15T19:39:38.708Z,64.98
2023-02-15T19:42:07.640Z,64.91
2023-02-15T19:44:35.926Z,65.29
2023-02-15T19:47:04.875Z,64.90
2023-02-15T19:49:33.539Z,65.16
2023-02-15T19:52:02.721Z,64.94
2023-02-15T19:54:35.372Z,63.37
2023-02-15T19:57:03.909Z,64.82
2023-02-15T19:59:34.382Z,65.41
2023-02-15T20:02:02.905Z,65.38
2023-02-15T20:04:31.614Z,64.86
2023-02-15T20:07:03.012Z,64.76
2023-02-15T20:09:35.684Z,65.21
2023-02-15T20:12:04.376Z,65.02
2023-02-15T20:14:32.954Z,64.88
2023-02-15T20:17:01.364Z,65.56
2023-02-15T20:19:29.905Z,66.53
2023-02-15T20:21:59.078Z,66.17
2023-02-15T20:24:30.507Z,65.77
2023-02-15T20:27:00.756Z,66.23
2023-02-15T20:29:30.168Z,66.38
2023-02-15T20:32:01.595Z,67.24
2023-02-15T20:34:30.161Z,67.31
2023-02-15T20:36:58.943Z,67.26
2023-02-15T20:39:27.365Z,67.46
2023-02-15T20:41:56.707Z,67.95
2023-02-15T20:44:29.204Z,67.11
2023-02-15T20:46:59.338Z,67.99
2023-02-15T20:49:28.968Z,67.47
2023-02-15T20:51:58.562Z,66.92
2023-02-15T20:54:30.388Z,66.52
2023-02-15T20:56:59.329Z,67.15
2023-02-15T20:59:32.320Z,66.89
2023-02-15T21:02:02.370Z,67.07
2023-02-15T21:04:33.168Z,66.60
2023-02-15T21:07:02.145Z,67.04
2023-02-15T21:09:31.133Z,67.49
2023-02-15T21:12:02.753Z,67.75
2023-02-15T21:14:32.804Z,68.29
2023-02-15T21:17:01.366Z,67.57
2023-02-15T21:19:30.428Z,68.24
2023-02-15T21:22:00.953Z,68.01
2023-02-15T21:24:30.640Z,67.57
2023-02-15T21:27:03.562Z,67.21
2023-02-15T21:29:34.052Z,68.37
2023-02-15T21:32:04.065Z,67.77
2023-02-15T21:34:32.912Z,68.01
2023-02-15T21:37:01.337Z,68.12
2023-02-15T21:39:33.820Z,67.49
2023-02-15T21:42:19.528Z,67.43
2023-02-15T21:45:06.748Z,67.79
2023-02-15T21:47:52.996Z,67.22
2023-02-15T21:50:41.392Z,67.24
2023-02-15T21:53:13.509Z,67.86
2023-02-15T21:55:42.334Z,68.04
2023-02-15T21:58:20.486Z,68.13
2023-02-15T22:00:54.895Z,68.46
2023-02-15T22:03:24.908Z,65.46
2023-02-15T22:05:54.070Z,66.50
2023-02-15T22:08:22.551Z,67.20
2023-02-15T22:10:51.088Z,67.71
2023-02-15T22:13:27.524Z,67.65
2023-02-15T22:15:58.227Z,67.98
2023-02-15T22:18:31.415Z,67.41
2023-02-15T22:21:02.284Z,67.97
2023-02-15T22:23:30.917Z,67.60
2023-02-15T22:26:04.170Z,67.74
2023-02-15T22:28:34.954Z,67.90
2023-02-15T22:31:05.891Z,68.46
2023-02-15T22:33:35.775Z,68.32
2023-02-15T22:36:04.160Z,68.83
2023-02-15T22:38:32.614Z,68.94
2023-02-15T22:41:06.249Z,68.80
2023-02-15T22:43:40.575Z,68.87
2023-02-15T22:46:16.941Z,69.14
2023-02-15T22:48:47.742Z,69.21
2023-02-15T22:51:17.292Z,68.83
2023-02-15T22:53:45.710Z,68.77
2023-02-15T22:56:19.645Z,68.72
2023-02-15T22:58:50.546Z,68.93
2023-02-15T23:01:24.925Z,69.25
2023-02-15T23:03:53.475Z,69.33
2023-02-15T23:06:21.850Z,69.33
2023-02-15T23:08:50.263Z,68.82
2023-02-15T23:11:19.692Z,68.86
2023-02-15T23:13:49.925Z,68.87
2023-02-15T23:16:19.379Z,69.13
2023-02-15T23:18:49.481Z,69.01
2023-02-15T23:21:22.289Z,68.86
2023-02-15T23:23:53.118Z,68.81
2023-02-15T23:26:25.022Z,68.99
2023-02-15T23:28:57.978Z,69.02
2023-02-15T23:31:28.834Z,69.41
2023-02-15T23:33:59.575Z,69.70
2023-02-15T23:36:30.696Z,69.66
2023-02-15T23:39:20.690Z,69.48
2023-02-15T23:41:48.072Z,69.92
2023-02-15T23:44:16.709Z,69.78
2023-02-15T23:46:47.499Z,69.52
2023-02-15T23:49:19.142Z,69.15
2023-02-15T23:51:49.430Z,68.64
2023-02-15T23:54:19.728Z,68.24
2023-02-15T23:56:51.515Z,68.17
2023-02-15T23:59:22.031Z,68.83
